sensor_id;sensor_type;location;lat;lon;timestamp;pressure;altitude;pressure_sealevel;temperature;humidity
23281;BME280;11809;56.390;-3.266;2023-04-09T00:02:16;102043.00;;;18.24;49.82
23281;BME280;11809;56.390;-3.266;2023-04-09T00:04:43;102042.25;;;18.21;50.19
23281;BME280;11809;56.390;-3.266;2023-04-09T00:07:10;102034.38;;;18.19;50.17
23281;BME280;11809;56.390;-3.266;2023-04-09T00:09:38;102040.84;;;18.13;50.47
23281;BME280;11809;56.390;-3.266;2023-04-09T00:12:05;102030.59;;;18.06;50.25
23281;BME280;11809;56.390;-3.266;2023-04-09T00:14:33;102034.28;;;18.03;50.48
23281;BME280;11809;56.390;-3.266;2023-04-09T00:17:03;102039.97;;;17.96;50.45
23281;BME280;11809;56.390;-3.266;2023-04-09T00:19:31;102037.47;;;17.93;50.85
23281;BME280;11809;56.390;-3.266;2023-04-09T00:21:59;102035.81;;;17.90;50.83
23281;BME280;11809;56.390;-3.266;2023-04-09T00:24:26;102032.44;;;17.87;50.87
23281;BME280;11809;56.390;-3.266;2023-04-09T00:26:54;102029.13;;;17.82;51.07
23281;BME280;11809;56.390;-3.266;2023-04-09T00:29:25;102039.13;;;17.77;51.21
23281;BME280;11809;56.390;-3.266;2023-04-09T00:31:54;102025.09;;;17.73;51.31
23281;BME280;11809;56.390;-3.266;2023-04-09T00:34:21;102025.19;;;17.72;51.20
23281;BME280;11809;56.390;-3.266;2023-04-09T00:36:48;102018.94;;;17.73;51.72
23281;BME280;11809;56.390;-3.266;2023-04-09T00:39:16;102022.53;;;17.72;51.19
23281;BME280;11809;56.390;-3.266;2023-04-09T00:41:43;102010.31;;;17.68;51.42
23281;BME280;11809;56.390;-3.266;2023-04-09T00:44:10;102007.75;;;17.66;51.44
23281;BME280;11809;56.390;-3.266;2023-04-09T00:46:37;102005.22;;;17.63;51.51
23281;BME280;11809;56.390;-3.266;2023-04-09T00:49:05;102004.44;;;17.61;51.55
23281;BME280;11809;56.390;-3.266;2023-04-09T00:51:32;101996.66;;;17.56;51.76
23281;BME280;11809;56.390;-3.266;2023-04-09T00:54:00;101989.66;;;17.55;51.46
23281;BME280;11809;56.390;-3.266;2023-04-09T00:56:28;101989.75;;;17.52;52.05
23281;BME280;11809;56.390;-3.266;2023-04-09T00:58:56;101989.03;;;17.49;51.91
23281;BME280;11809;56.390;-3.266;2023-04-09T01:01:23;101989.13;;;17.47;51.99
23281;BME280;11809;56.390;-3.266;2023-04-09T01:03:50;101983.84;;;17.46;52.11
23281;BME280;11809;56.390;-3.266;2023-04-09T01:09:40;101976.09;;;17.41;52.19
23281;BME280;11809;56.390;-3.266;2023-04-09T01:15:21;101967.50;;;17.36;52.31
23281;BME280;11809;56.390;-3.266;2023-04-09T01:20:40;101964.06;;;17.34;52.37
23281;BME280;11809;56.390;-3.266;2023-04-09T01:29:20;101953.56;;;17.31;52.30
23281;BME280;11809;56.390;-3.266;2023-04-09T01:31:49;101947.38;;;17.31;52.58
23281;BME280;11809;56.390;-3.266;2023-04-09T01:34:19;101949.97;;;17.32;52.21
23281;BME280;11809;56.390;-3.266;2023-04-09T01:36:53;101949.16;;;17.30;52.29
23281;BME280;11809;56.390;-3.266;2023-04-09T01:39:22;101948.38;;;17.28;52.32
23281;BME280;11809;56.390;-3.266;2023-04-09T01:41:49;101946.66;;;17.27;52.40
23281;BME280;11809;56.390;-3.266;2023-04-09T01:44:18;101932.59;;;17.25;52.24
23281;BME280;11809;56.390;-3.266;2023-04-09T01:46:48;101940.56;;;17.25;52.70
23281;BME280;11809;56.390;-3.266;2023-04-09T01:49:17;101936.97;;;17.26;52.45
23281;BME280;11809;56.390;-3.266;2023-04-09T01:51:46;101929.00;;;17.26;52.56
23281;BME280;11809;56.390;-3.266;2023-04-09T01:54:15;101927.28;;;17.25;52.61
23281;BME280;11809;56.390;-3.266;2023-04-09T01:56:44;101924.69;;;17.24;52.72
23281;BME280;11809;56.390;-3.266;2023-04-09T01:59:12;101921.97;;;17.25;52.73
23281;BME280;11809;56.390;-3.266;2023-04-09T02:01:54;101918.53;;;17.23;52.58
23281;BME280;11809;56.390;-3.266;2023-04-09T02:04:39;101922.09;;;17.22;52.78
23281;BME280;11809;56.390;-3.266;2023-04-09T02:09:53;101914.13;;;17.22;52.81
23281;BME280;11809;56.390;-3.266;2023-04-09T02:12:20;101902.66;;;17.22;52.83
23281;BME280;11809;56.390;-3.266;2023-04-09T02:14:50;101900.84;;;17.22;52.98
23281;BME280;11809;56.390;-3.266;2023-04-09T02:17:18;101900.94;;;17.21;53.17
23281;BME280;11809;56.390;-3.266;2023-04-09T02:19:46;101892.97;;;17.21;52.68
23281;BME280;11809;56.390;-3.266;2023-04-09T02:22:15;101897.34;;;17.22;53.23
23281;BME280;11809;56.390;-3.266;2023-04-09T02:24:43;101897.41;;;17.20;52.90
23281;BME280;11809;56.390;-3.266;2023-04-09T02:27:10;101893.84;;;17.21;52.72
23281;BME280;11809;56.390;-3.266;2023-04-09T02:29:38;101889.28;;;17.23;52.96
23281;BME280;11809;56.390;-3.266;2023-04-09T02:32:05;101892.81;;;17.24;52.67
23281;BME280;11809;56.390;-3.266;2023-04-09T02:34:33;101887.50;;;17.24;53.06
23281;BME280;11809;56.390;-3.266;2023-04-09T02:37:00;101889.38;;;17.22;52.74
23281;BME280;11809;56.390;-3.266;2023-04-09T02:39:27;101882.34;;;17.21;52.98
23281;BME280;11809;56.390;-3.266;2023-04-09T02:41:54;101884.91;;;17.22;52.60
23281;BME280;11809;56.390;-3.266;2023-04-09T02:44:22;101883.19;;;17.21;52.93
23281;BME280;11809;56.390;-3.266;2023-04-09T02:46:50;101881.31;;;17.23;52.90
23281;BME280;11809;56.390;-3.266;2023-04-09T02:49:20;101885.78;;;17.23;52.80
23281;BME280;11809;56.390;-3.266;2023-04-09T02:51:49;101878.66;;;17.23;52.81
23281;BME280;11809;56.390;-3.266;2023-04-09T02:54:16;101877.03;;;17.21;52.78
23281;BME280;11809;56.390;-3.266;2023-04-09T02:56:44;101872.50;;;17.23;53.10
23281;BME280;11809;56.390;-3.266;2023-04-09T02:59:11;101877.88;;;17.21;52.76
23281;BME280;11809;56.390;-3.266;2023-04-09T03:01:38;101875.22;;;17.21;53.06
23281;BME280;11809;56.390;-3.266;2023-04-09T03:04:05;101872.56;;;17.21;52.80
23281;BME280;11809;56.390;-3.266;2023-04-09T03:06:32;101867.41;;;17.18;52.84
23281;BME280;11809;56.390;-3.266;2023-04-09T03:09:00;101869.97;;;17.20;52.71
23281;BME280;11809;56.390;-3.266;2023-04-09T03:11:27;101862.09;;;17.18;52.96
23281;BME280;11809;56.390;-3.266;2023-04-09T03:13:54;101862.09;;;17.18;52.96
23281;BME280;11809;56.390;-3.266;2023-04-09T03:16:23;101858.47;;;17.19;52.85
23281;BME280;11809;56.390;-3.266;2023-04-09T03:18:50;101856.78;;;17.18;52.82
23281;BME280;11809;56.390;-3.266;2023-04-09T03:21:18;101854.03;;;17.20;52.99
23281;BME280;11809;56.390;-3.266;2023-04-09T03:23:45;101853.16;;;17.19;52.77
23281;BME280;11809;56.390;-3.266;2023-04-09T03:26:12;101849.59;;;17.20;52.66
23281;BME280;11809;56.390;-3.266;2023-04-09T03:28:39;101855.81;;;17.19;52.78
23281;BME280;11809;56.390;-3.266;2023-04-09T03:31:06;101853.13;;;17.21;53.05
23281;BME280;11809;56.390;-3.266;2023-04-09T03:33:33;101845.19;;;17.19;53.24
23281;BME280;11809;56.390;-3.266;2023-04-09T03:36:00;101844.41;;;17.17;53.31
23281;BME280;11809;56.390;-3.266;2023-04-09T03:38:27;101839.88;;;17.19;53.13
23281;BME280;11809;56.390;-3.266;2023-04-09T03:40:55;101839.88;;;17.19;53.07
23281;BME280;11809;56.390;-3.266;2023-04-09T03:43:22;101837.31;;;17.18;52.98
23281;BME280;11809;56.390;-3.266;2023-04-09T03:45:49;101832.78;;;17.20;53.09
23281;BME280;11809;56.390;-3.266;2023-04-09T03:48:16;101827.47;;;17.20;52.96
23281;BME280;11809;56.390;-3.266;2023-04-09T03:50:43;101831.91;;;17.19;53.27
23281;BME280;11809;56.390;-3.266;2023-04-09T03:53:11;101825.78;;;17.19;53.46
23281;BME280;11809;56.390;-3.266;2023-04-09T03:55:38;101828.34;;;17.20;53.50
23281;BME280;11809;56.390;-3.266;2023-04-09T03:58:05;101821.28;;;17.19;53.47
23281;BME280;11809;56.390;-3.266;2023-04-09T04:00:32;101825.69;;;17.20;53.41
23281;BME280;11809;56.390;-3.266;2023-04-09T04:02:59;101822.16;;;17.20;53.54
23281;BME280;11809;56.390;-3.266;2023-04-09T04:05:26;101809.84;;;17.19;53.58
23281;BME280;11809;56.390;-3.266;2023-04-09T04:07:53;101809.75;;;17.20;53.48
23281;BME280;11809;56.390;-3.266;2023-04-09T04:10:21;101797.31;;;17.21;53.48
23281;BME280;11809;56.390;-3.266;2023-04-09T04:12:48;101802.63;;;17.21;53.34
23281;BME280;11809;56.390;-3.266;2023-04-09T04:15:15;101804.38;;;17.22;53.65
23281;BME280;11809;56.390;-3.266;2023-04-09T04:17:43;101794.59;;;17.22;53.75
23281;BME280;11809;56.390;-3.266;2023-04-09T04:20:11;101791.91;;;17.22;53.48
23281;BME280;11809;56.390;-3.266;2023-04-09T04:22:38;101783.94;;;17.22;53.79
23281;BME280;11809;56.390;-3.266;2023-04-09T04:25:05;101791.88;;;17.24;53.35
23281;BME280;11809;56.390;-3.266;2023-04-09T04:27:32;101787.41;;;17.24;53.70
23281;BME280;11809;56.390;-3.266;2023-04-09T04:30:00;101781.16;;;17.25;53.44
23281;BME280;11809;56.390;-3.266;2023-04-09T04:32:28;101782.09;;;17.24;53.45
23281;BME280;11809;56.390;-3.266;2023-04-09T04:34:55;101785.69;;;17.23;53.52
23281;BME280;11809;56.390;-3.266;2023-04-09T04:37:22;101779.50;;;17.23;53.31
23281;BME280;11809;56.390;-3.266;2023-04-09T04:39:49;101777.72;;;17.23;53.49
23281;BME280;11809;56.390;-3.266;2023-04-09T04:42:17;101774.13;;;17.24;53.56
23281;BME280;11809;56.390;-3.266;2023-04-09T04:44:44;101773.19;;;17.25;53.52
23281;BME280;11809;56.390;-3.266;2023-04-09T04:47:11;101766.16;;;17.24;53.47
23281;BME280;11809;56.390;-3.266;2023-04-09T04:49:39;101775.84;;;17.25;53.56
23281;BME280;11809;56.390;-3.266;2023-04-09T04:52:06;101773.19;;;17.25;53.55
23281;BME280;11809;56.390;-3.266;2023-04-09T04:54:33;101776.78;;;17.24;53.62
23281;BME280;11809;56.390;-3.266;2023-04-09T04:57:01;101772.41;;;17.23;53.61
23281;BME280;11809;56.390;-3.266;2023-04-09T04:59:28;101771.28;;;17.27;53.56
23281;BME280;11809;56.390;-3.266;2023-04-09T05:01:55;101767.72;;;17.28;53.93
23281;BME280;11809;56.390;-3.266;2023-04-09T05:04:23;101760.53;;;17.30;53.61
23281;BME280;11809;56.390;-3.266;2023-04-09T05:06:50;101756.94;;;17.31;53.24
23281;BME280;11809;56.390;-3.266;2023-04-09T05:09:17;101755.06;;;17.33;53.62
23281;BME280;11809;56.390;-3.266;2023-04-09T05:11:47;101756.94;;;17.31;53.60
23281;BME280;11809;56.390;-3.266;2023-04-09T05:14:14;101755.06;;;17.33;53.66
23281;BME280;11809;56.390;-3.266;2023-04-09T05:16:41;101762.09;;;17.34;54.12
23281;BME280;11809;56.390;-3.266;2023-04-09T05:19:09;101758.34;;;17.38;53.33
23281;BME280;11809;56.390;-3.266;2023-04-09T05:21:36;101750.50;;;17.35;52.75
23281;BME280;11809;56.390;-3.266;2023-04-09T05:24:03;101750.69;;;17.32;52.61
23281;BME280;11809;56.390;-3.266;2023-04-09T05:26:30;101752.81;;;17.43;53.38
23281;BME280;11809;56.390;-3.266;2023-04-09T05:28:57;101757.63;;;17.53;53.92
23281;BME280;11809;56.390;-3.266;2023-04-09T05:31:25;101744.78;;;17.62;54.02
23281;BME280;11809;56.390;-3.266;2023-04-09T05:33:52;101750.63;;;17.68;54.05
23281;BME280;11809;56.390;-3.266;2023-04-09T05:36:20;101737.94;;;17.73;53.89
23281;BME280;11809;56.390;-3.266;2023-04-09T05:38:47;101741.22;;;17.78;53.84
23281;BME280;11809;56.390;-3.266;2023-04-09T05:41:14;101739.38;;;17.80;53.94
23281;BME280;11809;56.390;-3.266;2023-04-09T05:43:43;101736.34;;;17.86;53.78
23281;BME280;11809;56.390;-3.266;2023-04-09T05:46:10;101739.88;;;17.87;53.76
23281;BME280;11809;56.390;-3.266;2023-04-09T05:48:38;101733.47;;;17.91;53.63
23281;BME280;11809;56.390;-3.266;2023-04-09T05:51:05;101739.03;;;17.86;52.58
23281;BME280;11809;56.390;-3.266;2023-04-09T05:53:33;101735.69;;;17.83;51.57
23281;BME280;11809;56.390;-3.266;2023-04-09T05:56:00;101726.75;;;17.84;51.62
23281;BME280;11809;56.390;-3.266;2023-04-09T05:58:29;101725.72;;;17.86;51.84
23281;BME280;11809;56.390;-3.266;2023-04-09T06:00:56;101716.88;;;17.86;52.53
23281;BME280;11809;56.390;-3.266;2023-04-09T06:03:23;101716.72;;;17.89;52.39
23281;BME280;11809;56.390;-3.266;2023-04-09T06:05:54;101722.91;;;17.89;52.51
23281;BME280;11809;56.390;-3.266;2023-04-09T06:08:21;101724.38;;;17.95;52.26
23281;BME280;11809;56.390;-3.266;2023-04-09T06:10:48;101722.66;;;17.94;52.42
23281;BME280;11809;56.390;-3.266;2023-04-09T06:13:15;101713.69;;;17.79;51.78
23281;BME280;11809;56.390;-3.266;2023-04-09T06:15:42;101711.69;;;17.67;52.10
23281;BME280;11809;56.390;-3.266;2023-04-09T06:18:09;101712.69;;;17.65;52.48
23281;BME280;11809;56.390;-3.266;2023-04-09T06:20:36;101711.94;;;17.63;52.86
23281;BME280;11809;56.390;-3.266;2023-04-09T06:23:04;101707.56;;;17.62;53.18
23281;BME280;11809;56.390;-3.266;2023-04-09T06:25:31;101698.38;;;17.67;53.05
23281;BME280;11809;56.390;-3.266;2023-04-09T06:27:59;101700.81;;;17.72;53.44
23281;BME280;11809;56.390;-3.266;2023-04-09T06:30:26;101708.13;;;17.84;53.26
23281;BME280;11809;56.390;-3.266;2023-04-09T06:32:53;101706.94;;;17.89;53.30
23281;BME280;11809;56.390;-3.266;2023-04-09T06:35:21;101705.75;;;17.95;53.37
23281;BME280;11809;56.390;-3.266;2023-04-09T06:37:49;101700.28;;;17.98;52.89
23281;BME280;11809;56.390;-3.266;2023-04-09T06:40:16;101698.31;;;18.01;53.23
23281;BME280;11809;56.390;-3.266;2023-04-09T06:42:46;101692.75;;;18.06;53.30
23281;BME280;11809;56.390;-3.266;2023-04-09T06:45:13;101690.84;;;18.08;53.40
23281;BME280;11809;56.390;-3.266;2023-04-09T06:47:41;101693.69;;;18.05;53.12
23281;BME280;11809;56.390;-3.266;2023-04-09T06:50:08;101691.81;;;18.07;52.83
23281;BME280;11809;56.390;-3.266;2023-04-09T06:52:36;101690.78;;;18.09;52.78
23281;BME280;11809;56.390;-3.266;2023-04-09T06:55:03;101686.13;;;18.13;52.87
23281;BME280;11809;56.390;-3.266;2023-04-09T06:57:30;101687.78;;;18.15;52.45
23281;BME280;11809;56.390;-3.266;2023-04-09T06:59:57;101692.06;;;18.18;52.86
23281;BME280;11809;56.390;-3.266;2023-04-09T07:02:25;101691.91;;;18.21;52.74
23281;BME280;11809;56.390;-3.266;2023-04-09T07:04:52;101694.41;;;18.24;52.80
23281;BME280;11809;56.390;-3.266;2023-04-09T07:07:19;101699.63;;;18.26;52.43
23281;BME280;11809;56.390;-3.266;2023-04-09T07:10:08;101698.78;;;18.25;52.61
23281;BME280;11809;56.390;-3.266;2023-04-09T07:12:35;101700.66;;;18.23;52.64
23281;BME280;11809;56.390;-3.266;2023-04-09T07:15:04;101688.91;;;18.27;52.92
23281;BME280;11809;56.390;-3.266;2023-04-09T07:17:33;101699.56;;;18.27;52.93
23281;BME280;11809;56.390;-3.266;2023-04-09T07:20:00;101696.88;;;18.27;52.63
23281;BME280;11809;56.390;-3.266;2023-04-09T07:22:28;101692.34;;;18.29;52.81
23281;BME280;11809;56.390;-3.266;2023-04-09T07:24:56;101693.97;;;18.32;52.81
23281;BME280;11809;56.390;-3.266;2023-04-09T07:27:26;101704.59;;;18.32;53.13
23281;BME280;11809;56.390;-3.266;2023-04-09T07:29:57;101687.78;;;18.31;53.07
23281;BME280;11809;56.390;-3.266;2023-04-09T07:32:26;101701.72;;;18.36;53.04
23281;BME280;11809;56.390;-3.266;2023-04-09T07:34:56;101691.91;;;18.37;53.02
23281;BME280;11809;56.390;-3.266;2023-04-09T07:37:25;101688.31;;;18.38;52.77
23281;BME280;11809;56.390;-3.266;2023-04-09T07:39:52;101686.41;;;18.40;52.95
23281;BME280;11809;56.390;-3.266;2023-04-09T07:42:20;101683.69;;;18.41;52.84
23281;BME280;11809;56.390;-3.266;2023-04-09T07:44:49;101679.19;;;18.42;52.59
23281;BME280;11809;56.390;-3.266;2023-04-09T07:47:22;101682.06;;;18.39;52.58
23281;BME280;11809;56.390;-3.266;2023-04-09T07:49:49;101671.47;;;18.37;52.70
23281;BME280;11809;56.390;-3.266;2023-04-09T07:52:17;101671.41;;;18.39;52.79
23281;BME280;11809;56.390;-3.266;2023-04-09T07:54:46;101677.66;;;18.38;52.47
23281;BME280;11809;56.390;-3.266;2023-04-09T07:57:16;101679.47;;;18.37;52.41
23281;BME280;11809;56.390;-3.266;2023-04-09T07:59:43;101676.91;;;18.36;52.42
23281;BME280;11809;56.390;-3.266;2023-04-09T08:02:10;101686.56;;;18.37;52.36
23281;BME280;11809;56.390;-3.266;2023-04-09T08:04:40;101683.47;;;18.44;52.75
23281;BME280;11809;56.390;-3.266;2023-04-09T08:07:11;101676.91;;;18.51;52.61
23281;BME280;11809;56.390;-3.266;2023-04-09T08:09:38;101683.94;;;18.52;52.70
23281;BME280;11809;56.390;-3.266;2023-04-09T08:12:06;101674.94;;;18.55;52.55
23281;BME280;11809;56.390;-3.266;2023-04-09T08:14:34;101675.63;;;18.58;52.46
23281;BME280;11809;56.390;-3.266;2023-04-09T08:17:01;101676.16;;;18.49;52.42
23281;BME280;11809;56.390;-3.266;2023-04-09T08:19:28;101671.19;;;18.42;52.78
23281;BME280;11809;56.390;-3.266;2023-04-09T08:21:56;101671.19;;;18.42;52.79
23281;BME280;11809;56.390;-3.266;2023-04-09T08:24:24;101673.03;;;18.41;53.47
23281;BME280;11809;56.390;-3.266;2023-04-09T08:26:51;101671.41;;;18.39;53.32
23281;BME280;11809;56.390;-3.266;2023-04-09T08:29:19;101663.16;;;18.43;53.36
23281;BME280;11809;56.390;-3.266;2023-04-09T08:31:46;101669.78;;;18.52;53.29
23281;BME280;11809;56.390;-3.266;2023-04-09T08:34:13;101655.28;;;18.57;53.27
23281;BME280;11809;56.390;-3.266;2023-04-09T08:36:44;101660.59;;;18.57;53.33
23281;BME280;11809;56.390;-3.266;2023-04-09T08:39:12;101659.97;;;18.52;53.19
23281;BME280;11809;56.390;-3.266;2023-04-09T08:41:42;101667.03;;;18.53;53.70
23281;BME280;11809;56.390;-3.266;2023-04-09T08:44:10;101656.38;;;18.53;54.01
23281;BME280;11809;56.390;-3.266;2023-04-09T08:46:37;101653.13;;;18.48;52.43
23281;BME280;11809;56.390;-3.266;2023-04-09T08:49:07;101647.94;;;18.45;53.49
23281;BME280;11809;56.390;-3.266;2023-04-09T08:51:36;101646.06;;;18.47;53.74
23281;BME280;11809;56.390;-3.266;2023-04-09T08:54:05;101645.38;;;18.44;52.99
23281;BME280;11809;56.390;-3.266;2023-04-09T08:56:33;101641.34;;;18.37;51.65
23281;BME280;11809;56.390;-3.266;2023-04-09T08:59:01;101641.28;;;18.23;51.31
23281;BME280;11809;56.390;-3.266;2023-04-09T09:01:29;101639.38;;;18.09;50.21
23281;BME280;11809;56.390;-3.266;2023-04-09T09:04:07;101644.16;;;17.87;49.58
23281;BME280;11809;56.390;-3.266;2023-04-09T09:06:37;101631.75;;;17.70;48.89
23281;BME280;11809;56.390;-3.266;2023-04-09T09:11:46;101615.38;;;17.45;49.35
23281;BME280;11809;56.390;-3.266;2023-04-09T09:14:17;101616.13;;;17.31;49.28
23281;BME280;11809;56.390;-3.266;2023-04-09T09:22:00;101600.09;;;17.33;49.82
23281;BME280;11809;56.390;-3.266;2023-04-09T09:24:28;101587.75;;;17.32;49.45
23281;BME280;11809;56.390;-3.266;2023-04-09T09:26:55;101590.72;;;17.26;49.64
23281;BME280;11809;56.390;-3.266;2023-04-09T09:29:25;101583.78;;;17.23;49.61
23281;BME280;11809;56.390;-3.266;2023-04-09T09:31:54;101577.91;;;17.17;48.99
23281;BME280;11809;56.390;-3.266;2023-04-09T09:34:23;101571.94;;;17.13;49.22
23281;BME280;11809;56.390;-3.266;2023-04-09T09:36:50;101558.88;;;17.09;49.77
23281;BME280;11809;56.390;-3.266;2023-04-09T09:39:18;101558.81;;;17.10;49.90
23281;BME280;11809;56.390;-3.266;2023-04-09T09:41:45;101555.19;;;17.11;49.11
23281;BME280;11809;56.390;-3.266;2023-04-09T09:44:30;101550.84;;;17.10;49.07
23281;BME280;11809;56.390;-3.266;2023-04-09T09:46:58;101537.81;;;17.06;48.46
23281;BME280;11809;56.390;-3.266;2023-04-09T09:49:25;101539.19;;;17.13;48.66
23281;BME280;11809;56.390;-3.266;2023-04-09T09:51:55;101523.16;;;17.14;49.01
23281;BME280;11809;56.390;-3.266;2023-04-09T09:54:24;101530.97;;;17.17;48.97
23281;BME280;11809;56.390;-3.266;2023-04-09T09:56:57;101530.66;;;17.23;49.14
23281;BME280;11809;56.390;-3.266;2023-04-09T09:59:35;101529.53;;;17.27;48.64
23281;BME280;11809;56.390;-3.266;2023-04-09T10:02:04;101524.84;;;17.32;48.15
23281;BME280;11809;56.390;-3.266;2023-04-09T10:04:33;101515.84;;;17.35;48.19
23281;BME280;11809;56.390;-3.266;2023-04-09T10:07:05;101505.91;;;17.38;47.95
23281;BME280;11809;56.390;-3.266;2023-04-09T10:09:34;101507.47;;;17.42;48.19
23281;BME280;11809;56.390;-3.266;2023-04-09T10:12:05;101497.44;;;17.47;47.71
23281;BME280;11809;56.390;-3.266;2023-04-09T10:14:33;101494.78;;;17.47;47.51
23281;BME280;11809;56.390;-3.266;2023-04-09T10:17:02;101484.69;;;17.54;47.50
23281;BME280;11809;56.390;-3.266;2023-04-09T10:19:30;101488.03;;;17.58;47.45
23281;BME280;11809;56.390;-3.266;2023-04-09T10:22:09;101472.09;;;17.58;47.21
23281;BME280;11809;56.390;-3.266;2023-04-09T10:24:37;101464.00;;;17.59;47.33
23281;BME280;11809;56.390;-3.266;2023-04-09T10:27:11;101457.88;;;17.59;46.76
23281;BME280;11809;56.390;-3.266;2023-04-09T10:32:11;101443.28;;;17.66;47.19
23281;BME280;11809;56.390;-3.266;2023-04-09T10:34:42;101437.84;;;17.67;46.90
23281;BME280;11809;56.390;-3.266;2023-04-09T10:37:28;101428.19;;;17.66;46.73
23281;BME280;11809;56.390;-3.266;2023-04-09T10:39:56;101414.03;;;17.66;46.63
23281;BME280;11809;56.390;-3.266;2023-04-09T10:42:35;101416.53;;;17.69;46.18
23281;BME280;11809;56.390;-3.266;2023-04-09T10:45:07;101413.59;;;17.73;45.98
23281;BME280;11809;56.390;-3.266;2023-04-09T10:47:39;101404.00;;;17.71;46.71
23281;BME280;11809;56.390;-3.266;2023-04-09T10:50:14;101388.81;;;17.73;46.83
23281;BME280;11809;56.390;-3.266;2023-04-09T10:52:43;101388.81;;;17.73;46.46
23281;BME280;11809;56.390;-3.266;2023-04-09T10:55:33;101382.19;;;17.80;46.63
23281;BME280;11809;56.390;-3.266;2023-04-09T10:58:02;101376.31;;;17.75;45.77
23281;BME280;11809;56.390;-3.266;2023-04-09T11:00:30;101368.50;;;17.72;45.81
23281;BME280;11809;56.390;-3.266;2023-04-09T11:05:36;101368.09;;;17.64;45.88
23281;BME280;11809;56.390;-3.266;2023-04-09T11:08:13;101364.91;;;17.57;45.80
23281;BME280;11809;56.390;-3.266;2023-04-09T11:10:41;101374.25;;;17.64;45.59
23281;BME280;11809;56.390;-3.266;2023-04-09T11:13:12;101370.41;;;17.54;45.23
23281;BME280;11809;56.390;-3.266;2023-04-09T11:15:39;101359.69;;;17.55;45.32
23281;BME280;11809;56.390;-3.266;2023-04-09T11:18:07;101360.28;;;17.61;45.37
23281;BME280;11809;56.390;-3.266;2023-04-09T11:20:38;101359.84;;;17.68;45.58
23281;BME280;11809;56.390;-3.266;2023-04-09T11:23:06;101360.69;;;17.69;45.26
23281;BME280;11809;56.390;-3.266;2023-04-09T11:25:33;101357.00;;;17.71;45.20
23281;BME280;11809;56.390;-3.266;2023-04-09T11:28:02;101355.09;;;17.73;45.47
23281;BME280;11809;56.390;-3.266;2023-04-09T11:30:30;101359.56;;;17.73;45.66
23281;BME280;11809;56.390;-3.266;2023-04-09T11:33:00;101347.22;;;17.72;45.12
23281;BME280;11809;56.390;-3.266;2023-04-09T11:35:28;101343.13;;;17.66;44.83
23281;BME280;11809;56.390;-3.266;2023-04-09T11:37:55;101348.63;;;17.63;44.73
23281;BME280;11809;56.390;-3.266;2023-04-09T11:40:24;101347.94;;;17.60;44.69
23281;BME280;11809;56.390;-3.266;2023-04-09T11:42:53;101347.94;;;17.60;45.08
23281;BME280;11809;56.390;-3.266;2023-04-09T11:45:25;101351.38;;;17.62;45.17
23281;BME280;11809;56.390;-3.266;2023-04-09T11:47:53;101340.19;;;17.71;45.89
23281;BME280;11809;56.390;-3.266;2023-04-09T11:50:21;101341.16;;;17.70;45.74
23281;BME280;11809;56.390;-3.266;2023-04-09T11:52:49;101336.84;;;17.67;45.68
23281;BME280;11809;56.390;-3.266;2023-04-09T11:55:27;101339.16;;;17.73;45.93
23281;BME280;11809;56.390;-3.266;2023-04-09T11:57:59;101337.47;;;17.72;45.59
23281;BME280;11809;56.390;-3.266;2023-04-09T12:00:27;101342.94;;;17.69;45.27
23281;BME280;11809;56.390;-3.266;2023-04-09T12:03:00;101340.19;;;17.71;45.31
23281;BME280;11809;56.390;-3.266;2023-04-09T12:05:31;101345.69;;;17.68;45.37
23281;BME280;11809;56.390;-3.266;2023-04-09T12:08:03;101344.81;;;17.67;45.12
23281;BME280;11809;56.390;-3.266;2023-04-09T12:10:32;101327.88;;;17.70;45.40
23281;BME280;11809;56.390;-3.266;2023-04-09T12:13:05;101323.88;;;17.77;46.24
23281;BME280;11809;56.390;-3.266;2023-04-09T12:15:34;101315.28;;;17.87;47.08
23281;BME280;11809;56.390;-3.266;2023-04-09T12:18:02;101317.28;;;17.98;47.57
23281;BME280;11809;56.390;-3.266;2023-04-09T12:20:41;101317.75;;;18.04;48.13
23281;BME280;11809;56.390;-3.266;2023-04-09T12:23:10;101324.50;;;18.10;48.91
23281;BME280;11809;56.390;-3.266;2023-04-09T12:25:42;101318.94;;;18.14;49.10
23281;BME280;11809;56.390;-3.266;2023-04-09T12:28:12;101304.59;;;18.17;49.71
23281;BME280;11809;56.390;-3.266;2023-04-09T12:30:41;101297.06;;;18.24;49.57
23281;BME280;11809;56.390;-3.266;2023-04-09T12:33:10;101294.34;;;18.25;50.06
23281;BME280;11809;56.390;-3.266;2023-04-09T12:35:37;101287.84;;;18.29;50.18
23281;BME280;11809;56.390;-3.266;2023-04-09T12:38:05;101288.59;;;18.31;50.80
23281;BME280;11809;56.390;-3.266;2023-04-09T12:40:32;101280.25;;;18.37;50.70
23281;BME280;11809;56.390;-3.266;2023-04-09T12:42:59;101278.28;;;18.41;51.13
23281;BME280;11809;56.390;-3.266;2023-04-09T12:45:28;101278.09;;;18.44;51.54
23281;BME280;11809;56.390;-3.266;2023-04-09T12:47:57;101273.59;;;18.44;52.06
23281;BME280;11809;56.390;-3.266;2023-04-09T12:50:25;101288.06;;;18.40;49.22
23281;BME280;11809;56.390;-3.266;2023-04-09T12:52:52;101280.06;;;18.26;48.24
23281;BME280;11809;56.390;-3.266;2023-04-09T12:55:22;101281.78;;;18.27;48.24
23281;BME280;11809;56.390;-3.266;2023-04-09T12:57:50;101278.19;;;18.28;46.90
23281;BME280;11809;56.390;-3.266;2023-04-09T13:00:17;101284.34;;;18.29;46.74
23281;BME280;11809;56.390;-3.266;2023-04-09T13:02:45;101280.91;;;18.27;45.92
23281;BME280;11809;56.390;-3.266;2023-04-09T13:05:12;101274.38;;;18.32;45.90
23281;BME280;11809;56.390;-3.266;2023-04-09T13:07:40;101275.31;;;18.31;45.67
23281;BME280;11809;56.390;-3.266;2023-04-09T13:10:09;101266.09;;;18.37;45.76
23281;BME280;11809;56.390;-3.266;2023-04-09T13:12:37;101250.13;;;18.37;45.62
23281;BME280;11809;56.390;-3.266;2023-04-09T13:15:04;101250.72;;;18.28;45.60
23281;BME280;11809;56.390;-3.266;2023-04-09T13:17:31;101254.22;;;18.14;44.91
23281;BME280;11809;56.390;-3.266;2023-04-09T13:19:58;101246.91;;;18.03;44.97